Jimmy Lake, Canada
Current Conditions -  °F | °C
As of 7:00 AM on Thursday 30 Oct 2014 (Local Time) from CWHN Reporting Station
Overcast Overcast  
Wind Chill: 18°   Ceiling: 1000
Heat Index: 28°   Visibility: 9mi
Dew Point: 25°   Wind: 13mph
Humidity: 86%   Direction: 160°SSE
Pressure: 30.33"   Gusts: NA
Location:  54.9°N, 109.97°W
Report Text: CWHN 301300Z AUTO 16011KT 9SM OVC010 M02/M04 A3033 RMK PCPN0.5MM PAST HR SLP307
Loading
Personal Weather Stations






























Interactive Weather Map New forecast layout! Learn more

10-Day Weather Forecast

Advertisements
Track Severe Weather on mobile